sensor_id;sensor_type;location;lat;lon;timestamp;P1;durP1;ratioP1;P2;durP2;ratioP2
71475;SDS011;59286;59.274;17.974;2024-03-08T00:02:15;14.43;;;5.30;;
71475;SDS011;59286;59.274;17.974;2024-03-08T00:04:44;22.15;;;5.43;;
71475;SDS011;59286;59.274;17.974;2024-03-08T00:07:10;17.73;;;4.70;;
71475;SDS011;59286;59.274;17.974;2024-03-08T00:09:35;14.50;;;4.53;;
71475;SDS011;59286;59.274;17.974;2024-03-08T00:12:01;12.80;;;4.28;;
71475;SDS011;59286;59.274;17.974;2024-03-08T00:14:26;12.40;;;5.10;;
71475;SDS011;59286;59.274;17.974;2024-03-08T00:16:52;20.25;;;4.93;;
71475;SDS011;59286;59.274;17.974;2024-03-08T00:19:19;16.48;;;5.00;;
71475;SDS011;59286;59.274;17.974;2024-03-08T00:21:44;21.58;;;5.25;;
71475;SDS011;59286;59.274;17.974;2024-03-08T00:24:10;13.70;;;4.75;;
71475;SDS011;59286;59.274;17.974;2024-03-08T00:26:37;17.15;;;5.15;;
71475;SDS011;59286;59.274;17.974;2024-03-08T00:29:02;18.27;;;4.80;;
71475;SDS011;59286;59.274;17.974;2024-03-08T00:31:28;19.58;;;4.90;;
71475;SDS011;59286;59.274;17.974;2024-03-08T00:33:55;15.38;;;4.95;;
71475;SDS011;59286;59.274;17.974;2024-03-08T00:36:22;17.38;;;5.07;;
71475;SDS011;59286;59.274;17.974;2024-03-08T00:38:47;17.65;;;6.13;;
71475;SDS011;59286;59.274;17.974;2024-03-08T00:41:13;16.27;;;4.95;;
71475;SDS011;59286;59.274;17.974;2024-03-08T00:43:38;14.25;;;5.40;;
71475;SDS011;59286;59.274;17.974;2024-03-08T00:46:04;16.65;;;5.25;;
71475;SDS011;59286;59.274;17.974;2024-03-08T00:48:29;19.45;;;4.68;;
71475;SDS011;59286;59.274;17.974;2024-03-08T00:50:56;17.92;;;5.28;;
71475;SDS011;59286;59.274;17.974;2024-03-08T00:53:21;20.52;;;5.35;;
71475;SDS011;59286;59.274;17.974;2024-03-08T00:55:47;9.95;;;4.32;;
71475;SDS011;59286;59.274;17.974;2024-03-08T00:58:12;11.90;;;4.63;;
71475;SDS011;59286;59.274;17.974;2024-03-08T01:00:38;18.48;;;5.20;;
71475;SDS011;59286;59.274;17.974;2024-03-08T01:03:06;15.95;;;5.03;;
71475;SDS011;59286;59.274;17.974;2024-03-08T01:05:32;10.00;;;4.38;;
71475;SDS011;59286;59.274;17.974;2024-03-08T01:08:00;13.45;;;5.15;;
71475;SDS011;59286;59.274;17.974;2024-03-08T01:10:25;20.23;;;5.22;;
71475;SDS011;59286;59.274;17.974;2024-03-08T01:12:52;14.18;;;4.82;;
71475;SDS011;59286;59.274;17.974;2024-03-08T01:15:19;8.25;;;4.65;;
71475;SDS011;59286;59.274;17.974;2024-03-08T01:17:45;14.38;;;4.43;;
71475;SDS011;59286;59.274;17.974;2024-03-08T01:20:10;14.13;;;4.68;;
71475;SDS011;59286;59.274;17.974;2024-03-08T01:22:37;17.60;;;4.28;;
71475;SDS011;59286;59.274;17.974;2024-03-08T01:25:03;16.42;;;5.20;;
71475;SDS011;59286;59.274;17.974;2024-03-08T01:27:30;11.18;;;4.20;;
71475;SDS011;59286;59.274;17.974;2024-03-08T01:29:56;15.70;;;4.18;;
71475;SDS011;59286;59.274;17.974;2024-03-08T01:32:21;8.40;;;4.10;;
71475;SDS011;59286;59.274;17.974;2024-03-08T01:34:48;14.55;;;4.38;;
71475;SDS011;59286;59.274;17.974;2024-03-08T01:37:14;16.52;;;4.38;;
71475;SDS011;59286;59.274;17.974;2024-03-08T01:39:39;12.13;;;4.03;;
71475;SDS011;59286;59.274;17.974;2024-03-08T01:42:05;14.38;;;3.63;;
71475;SDS011;59286;59.274;17.974;2024-03-08T01:44:30;12.70;;;4.70;;
71475;SDS011;59286;59.274;17.974;2024-03-08T01:46:56;7.43;;;3.67;;
71475;SDS011;59286;59.274;17.974;2024-03-08T01:49:21;7.47;;;3.75;;
71475;SDS011;59286;59.274;17.974;2024-03-08T01:51:48;8.18;;;3.25;;
71475;SDS011;59286;59.274;17.974;2024-03-08T01:54:15;10.15;;;3.83;;
71475;SDS011;59286;59.274;17.974;2024-03-08T01:56:43;4.68;;;2.60;;
71475;SDS011;59286;59.274;17.974;2024-03-08T01:59:08;8.32;;;3.10;;
71475;SDS011;59286;59.274;17.974;2024-03-08T02:01:34;5.55;;;3.15;;
71475;SDS011;59286;59.274;17.974;2024-03-08T02:04:00;6.07;;;2.65;;
71475;SDS011;59286;59.274;17.974;2024-03-08T02:06:25;6.53;;;2.85;;
71475;SDS011;59286;59.274;17.974;2024-03-08T02:08:51;7.05;;;3.35;;
71475;SDS011;59286;59.274;17.974;2024-03-08T02:11:17;5.03;;;2.90;;
71475;SDS011;59286;59.274;17.974;2024-03-08T02:13:43;11.25;;;3.78;;
71475;SDS011;59286;59.274;17.974;2024-03-08T02:16:09;6.72;;;3.83;;
71475;SDS011;59286;59.274;17.974;2024-03-08T02:18:35;6.53;;;3.47;;
71475;SDS011;59286;59.274;17.974;2024-03-08T02:21:01;6.18;;;3.67;;
71475;SDS011;59286;59.274;17.974;2024-03-08T02:23:28;10.48;;;3.85;;
71475;SDS011;59286;59.274;17.974;2024-03-08T02:25:54;5.65;;;4.07;;
71475;SDS011;59286;59.274;17.974;2024-03-08T02:28:21;8.30;;;3.72;;
71475;SDS011;59286;59.274;17.974;2024-03-08T02:30:47;10.20;;;3.47;;
71475;SDS011;59286;59.274;17.974;2024-03-08T02:33:16;4.28;;;3.22;;
71475;SDS011;59286;59.274;17.974;2024-03-08T02:35:42;6.70;;;3.15;;
71475;SDS011;59286;59.274;17.974;2024-03-08T02:38:14;4.90;;;2.65;;
71475;SDS011;59286;59.274;17.974;2024-03-08T02:40:44;8.45;;;2.90;;
71475;SDS011;59286;59.274;17.974;2024-03-08T02:43:11;7.13;;;3.25;;
71475;SDS011;59286;59.274;17.974;2024-03-08T02:45:37;7.25;;;3.35;;
71475;SDS011;59286;59.274;17.974;2024-03-08T02:48:03;5.30;;;2.70;;
71475;SDS011;59286;59.274;17.974;2024-03-08T02:50:29;4.25;;;3.05;;
71475;SDS011;59286;59.274;17.974;2024-03-08T02:52:54;10.43;;;3.17;;
71475;SDS011;59286;59.274;17.974;2024-03-08T02:55:20;8.13;;;3.10;;
71475;SDS011;59286;59.274;17.974;2024-03-08T02:57:45;8.25;;;3.20;;
71475;SDS011;59286;59.274;17.974;2024-03-08T03:00:14;6.93;;;2.70;;
71475;SDS011;59286;59.274;17.974;2024-03-08T03:02:40;5.90;;;2.63;;
71475;SDS011;59286;59.274;17.974;2024-03-08T03:05:07;5.32;;;2.55;;
71475;SDS011;59286;59.274;17.974;2024-03-08T03:07:34;3.58;;;2.40;;
71475;SDS011;59286;59.274;17.974;2024-03-08T03:10:00;7.90;;;2.35;;
71475;SDS011;59286;59.274;17.974;2024-03-08T03:12:27;6.90;;;2.80;;
71475;SDS011;59286;59.274;17.974;2024-03-08T03:14:56;7.57;;;2.70;;
71475;SDS011;59286;59.274;17.974;2024-03-08T03:17:24;3.95;;;2.88;;
71475;SDS011;59286;59.274;17.974;2024-03-08T03:19:50;3.75;;;2.40;;
71475;SDS011;59286;59.274;17.974;2024-03-08T03:22:20;4.85;;;2.40;;
71475;SDS011;59286;59.274;17.974;2024-03-08T03:24:46;5.45;;;2.88;;
71475;SDS011;59286;59.274;17.974;2024-03-08T03:27:12;4.20;;;2.67;;
71475;SDS011;59286;59.274;17.974;2024-03-08T03:29:43;4.32;;;2.95;;
71475;SDS011;59286;59.274;17.974;2024-03-08T03:32:12;4.55;;;2.53;;
71475;SDS011;59286;59.274;17.974;2024-03-08T03:34:38;2.95;;;2.30;;
71475;SDS011;59286;59.274;17.974;2024-03-08T03:37:04;4.93;;;2.67;;
71475;SDS011;59286;59.274;17.974;2024-03-08T03:39:30;3.55;;;2.53;;
71475;SDS011;59286;59.274;17.974;2024-03-08T03:41:59;4.13;;;2.65;;
71475;SDS011;59286;59.274;17.974;2024-03-08T03:44:28;4.00;;;2.58;;
71475;SDS011;59286;59.274;17.974;2024-03-08T03:46:54;4.22;;;2.50;;
71475;SDS011;59286;59.274;17.974;2024-03-08T03:49:19;10.68;;;2.60;;
71475;SDS011;59286;59.274;17.974;2024-03-08T03:51:45;5.05;;;2.80;;
71475;SDS011;59286;59.274;17.974;2024-03-08T03:54:10;6.68;;;2.95;;
71475;SDS011;59286;59.274;17.974;2024-03-08T03:56:36;6.03;;;3.10;;
71475;SDS011;59286;59.274;17.974;2024-03-08T03:59:01;4.65;;;2.90;;
71475;SDS011;59286;59.274;17.974;2024-03-08T04:01:27;6.55;;;3.20;;
71475;SDS011;59286;59.274;17.974;2024-03-08T04:03:52;4.20;;;2.92;;
71475;SDS011;59286;59.274;17.974;2024-03-08T04:06:17;5.63;;;3.03;;
71475;SDS011;59286;59.274;17.974;2024-03-08T04:08:43;5.72;;;2.72;;
71475;SDS011;59286;59.274;17.974;2024-03-08T04:11:08;5.22;;;2.63;;
71475;SDS011;59286;59.274;17.974;2024-03-08T04:13:34;4.93;;;2.97;;
71475;SDS011;59286;59.274;17.974;2024-03-08T04:15:59;4.28;;;3.22;;
71475;SDS011;59286;59.274;17.974;2024-03-08T04:18:25;13.38;;;3.20;;
71475;SDS011;59286;59.274;17.974;2024-03-08T04:20:50;5.95;;;3.13;;
71475;SDS011;59286;59.274;17.974;2024-03-08T04:23:16;5.53;;;2.85;;
71475;SDS011;59286;59.274;17.974;2024-03-08T04:25:42;5.47;;;3.22;;
71475;SDS011;59286;59.274;17.974;2024-03-08T04:28:08;5.97;;;2.92;;
71475;SDS011;59286;59.274;17.974;2024-03-08T04:30:37;4.57;;;2.92;;
71475;SDS011;59286;59.274;17.974;2024-03-08T04:33:03;7.25;;;3.17;;
71475;SDS011;59286;59.274;17.974;2024-03-08T04:35:28;6.50;;;3.22;;
71475;SDS011;59286;59.274;17.974;2024-03-08T04:37:54;3.45;;;2.80;;
71475;SDS011;59286;59.274;17.974;2024-03-08T04:40:19;6.05;;;3.20;;
71475;SDS011;59286;59.274;17.974;2024-03-08T04:42:45;6.70;;;3.38;;
71475;SDS011;59286;59.274;17.974;2024-03-08T04:45:10;8.57;;;4.00;;
71475;SDS011;59286;59.274;17.974;2024-03-08T04:47:36;7.07;;;3.35;;
71475;SDS011;59286;59.274;17.974;2024-03-08T04:50:02;5.60;;;3.22;;
71475;SDS011;59286;59.274;17.974;2024-03-08T04:52:27;4.38;;;3.30;;
71475;SDS011;59286;59.274;17.974;2024-03-08T04:54:53;6.97;;;3.30;;
71475;SDS011;59286;59.274;17.974;2024-03-08T04:57:18;6.47;;;3.25;;
71475;SDS011;59286;59.274;17.974;2024-03-08T04:59:44;12.15;;;3.63;;
71475;SDS011;59286;59.274;17.974;2024-03-08T05:02:09;8.93;;;3.65;;
71475;SDS011;59286;59.274;17.974;2024-03-08T05:04:35;5.60;;;3.53;;
71475;SDS011;59286;59.274;17.974;2024-03-08T05:07:01;4.22;;;3.20;;
71475;SDS011;59286;59.274;17.974;2024-03-08T05:09:27;5.70;;;3.72;;
71475;SDS011;59286;59.274;17.974;2024-03-08T05:11:54;6.65;;;3.50;;
71475;SDS011;59286;59.274;17.974;2024-03-08T05:14:19;7.07;;;3.88;;
71475;SDS011;59286;59.274;17.974;2024-03-08T05:16:46;6.60;;;3.63;;
71475;SDS011;59286;59.274;17.974;2024-03-08T05:19:14;4.47;;;3.40;;
71475;SDS011;59286;59.274;17.974;2024-03-08T05:21:42;7.70;;;3.83;;
71475;SDS011;59286;59.274;17.974;2024-03-08T05:24:09;4.78;;;3.53;;
71475;SDS011;59286;59.274;17.974;2024-03-08T05:26:35;5.50;;;3.72;;
71475;SDS011;59286;59.274;17.974;2024-03-08T05:29:00;4.78;;;3.45;;
71475;SDS011;59286;59.274;17.974;2024-03-08T05:31:25;7.60;;;3.55;;
71475;SDS011;59286;59.274;17.974;2024-03-08T05:33:51;5.38;;;3.80;;
71475;SDS011;59286;59.274;17.974;2024-03-08T05:36:19;9.32;;;4.03;;
71475;SDS011;59286;59.274;17.974;2024-03-08T05:38:44;9.50;;;4.40;;
71475;SDS011;59286;59.274;17.974;2024-03-08T05:41:10;5.95;;;4.25;;
71475;SDS011;59286;59.274;17.974;2024-03-08T05:43:37;8.30;;;4.30;;
71475;SDS011;59286;59.274;17.974;2024-03-08T05:46:02;10.40;;;4.07;;
71475;SDS011;59286;59.274;17.974;2024-03-08T05:48:29;7.72;;;4.25;;
71475;SDS011;59286;59.274;17.974;2024-03-08T05:50:57;6.65;;;4.57;;
71475;SDS011;59286;59.274;17.974;2024-03-08T05:53:22;10.75;;;4.45;;
71475;SDS011;59286;59.274;17.974;2024-03-08T05:55:48;8.52;;;4.22;;
71475;SDS011;59286;59.274;17.974;2024-03-08T05:58:14;9.13;;;4.47;;
71475;SDS011;59286;59.274;17.974;2024-03-08T06:00:40;9.07;;;4.18;;
71475;SDS011;59286;59.274;17.974;2024-03-08T06:03:05;12.27;;;4.65;;
71475;SDS011;59286;59.274;17.974;2024-03-08T06:05:30;7.57;;;3.90;;
71475;SDS011;59286;59.274;17.974;2024-03-08T06:07:56;7.55;;;4.35;;
71475;SDS011;59286;59.274;17.974;2024-03-08T06:10:21;9.35;;;4.50;;
71475;SDS011;59286;59.274;17.974;2024-03-08T06:12:47;12.45;;;4.20;;
71475;SDS011;59286;59.274;17.974;2024-03-08T06:15:12;8.13;;;4.28;;
71475;SDS011;59286;59.274;17.974;2024-03-08T06:17:41;7.38;;;3.80;;
71475;SDS011;59286;59.274;17.974;2024-03-08T06:20:07;9.57;;;4.30;;
71475;SDS011;59286;59.274;17.974;2024-03-08T06:22:39;6.72;;;4.68;;
71475;SDS011;59286;59.274;17.974;2024-03-08T06:25:06;6.70;;;4.03;;
71475;SDS011;59286;59.274;17.974;2024-03-08T06:27:32;6.45;;;4.13;;
71475;SDS011;59286;59.274;17.974;2024-03-08T06:29:59;8.52;;;4.00;;
71475;SDS011;59286;59.274;17.974;2024-03-08T06:32:25;8.52;;;4.50;;
71475;SDS011;59286;59.274;17.974;2024-03-08T06:34:50;6.95;;;4.70;;
71475;SDS011;59286;59.274;17.974;2024-03-08T06:37:16;10.65;;;4.47;;
71475;SDS011;59286;59.274;17.974;2024-03-08T06:39:47;8.55;;;4.30;;
71475;SDS011;59286;59.274;17.974;2024-03-08T06:42:13;11.82;;;4.32;;
71475;SDS011;59286;59.274;17.974;2024-03-08T06:44:38;11.80;;;4.35;;
71475;SDS011;59286;59.274;17.974;2024-03-08T06:47:10;10.65;;;4.20;;
71475;SDS011;59286;59.274;17.974;2024-03-08T06:49:36;10.43;;;4.47;;
71475;SDS011;59286;59.274;17.974;2024-03-08T06:52:01;9.50;;;4.50;;
71475;SDS011;59286;59.274;17.974;2024-03-08T06:54:26;6.40;;;4.00;;
71475;SDS011;59286;59.274;17.974;2024-03-08T06:56:52;13.02;;;4.60;;
71475;SDS011;59286;59.274;17.974;2024-03-08T06:59:17;11.10;;;4.35;;
71475;SDS011;59286;59.274;17.974;2024-03-08T07:01:43;8.38;;;4.07;;
71475;SDS011;59286;59.274;17.974;2024-03-08T07:04:08;10.48;;;4.38;;
71475;SDS011;59286;59.274;17.974;2024-03-08T07:06:34;7.57;;;4.18;;
71475;SDS011;59286;59.274;17.974;2024-03-08T07:08:59;9.60;;;4.18;;
71475;SDS011;59286;59.274;17.974;2024-03-08T07:11:25;8.02;;;4.20;;
71475;SDS011;59286;59.274;17.974;2024-03-08T07:13:50;7.55;;;3.83;;
71475;SDS011;59286;59.274;17.974;2024-03-08T07:16:15;6.97;;;3.67;;
71475;SDS011;59286;59.274;17.974;2024-03-08T07:18:41;9.23;;;3.45;;
71475;SDS011;59286;59.274;17.974;2024-03-08T07:21:08;18.08;;;3.90;;
71475;SDS011;59286;59.274;17.974;2024-03-08T07:23:35;11.80;;;4.10;;
71475;SDS011;59286;59.274;17.974;2024-03-08T07:26:20;8.05;;;4.07;;
71475;SDS011;59286;59.274;17.974;2024-03-08T07:28:45;8.07;;;3.90;;
71475;SDS011;59286;59.274;17.974;2024-03-08T07:31:10;8.52;;;3.67;;
71475;SDS011;59286;59.274;17.974;2024-03-08T07:33:42;9.95;;;3.97;;
71475;SDS011;59286;59.274;17.974;2024-03-08T07:36:07;7.53;;;4.20;;
71475;SDS011;59286;59.274;17.974;2024-03-08T07:38:33;7.32;;;3.97;;
71475;SDS011;59286;59.274;17.974;2024-03-08T07:40:59;11.32;;;4.18;;
71475;SDS011;59286;59.274;17.974;2024-03-08T07:43:25;7.72;;;4.18;;
71475;SDS011;59286;59.274;17.974;2024-03-08T07:45:52;5.22;;;3.80;;
71475;SDS011;59286;59.274;17.974;2024-03-08T07:48:20;10.35;;;3.90;;
71475;SDS011;59286;59.274;17.974;2024-03-08T07:50:46;14.00;;;4.05;;
71475;SDS011;59286;59.274;17.974;2024-03-08T07:53:11;9.93;;;4.00;;
71475;SDS011;59286;59.274;17.974;2024-03-08T07:55:37;5.95;;;3.88;;
71475;SDS011;59286;59.274;17.974;2024-03-08T07:58:07;7.60;;;3.78;;
71475;SDS011;59286;59.274;17.974;2024-03-08T08:00:34;7.55;;;3.53;;
71475;SDS011;59286;59.274;17.974;2024-03-08T08:03:01;10.13;;;4.30;;
71475;SDS011;59286;59.274;17.974;2024-03-08T08:05:26;7.30;;;3.83;;
71475;SDS011;59286;59.274;17.974;2024-03-08T08:07:52;14.40;;;4.32;;
71475;SDS011;59286;59.274;17.974;2024-03-08T08:10:18;17.88;;;4.10;;
71475;SDS011;59286;59.274;17.974;2024-03-08T08:12:46;6.60;;;3.65;;
71475;SDS011;59286;59.274;17.974;2024-03-08T08:15:14;9.45;;;3.88;;
71475;SDS011;59286;59.274;17.974;2024-03-08T08:17:40;10.65;;;3.75;;
71475;SDS011;59286;59.274;17.974;2024-03-08T08:20:09;10.13;;;3.83;;
71475;SDS011;59286;59.274;17.974;2024-03-08T08:22:36;9.23;;;3.80;;
71475;SDS011;59286;59.274;17.974;2024-03-08T08:25:05;7.47;;;3.75;;
71475;SDS011;59286;59.274;17.974;2024-03-08T08:27:31;5.00;;;3.60;;
71475;SDS011;59286;59.274;17.974;2024-03-08T08:29:56;7.80;;;4.22;;
71475;SDS011;59286;59.274;17.974;2024-03-08T08:32:22;6.50;;;3.40;;
71475;SDS011;59286;59.274;17.974;2024-03-08T08:34:47;6.70;;;3.67;;
71475;SDS011;59286;59.274;17.974;2024-03-08T08:37:13;13.45;;;4.30;;
71475;SDS011;59286;59.274;17.974;2024-03-08T08:39:38;14.18;;;3.97;;
71475;SDS011;59286;59.274;17.974;2024-03-08T08:42:04;6.82;;;3.28;;
71475;SDS011;59286;59.274;17.974;2024-03-08T08:44:29;5.85;;;3.55;;
71475;SDS011;59286;59.274;17.974;2024-03-08T08:46:56;13.00;;;3.90;;
71475;SDS011;59286;59.274;17.974;2024-03-08T08:49:22;8.82;;;3.80;;
71475;SDS011;59286;59.274;17.974;2024-03-08T08:51:52;7.85;;;3.33;;
71475;SDS011;59286;59.274;17.974;2024-03-08T08:54:18;9.43;;;3.80;;
71475;SDS011;59286;59.274;17.974;2024-03-08T08:56:44;11.90;;;3.90;;
71475;SDS011;59286;59.274;17.974;2024-03-08T08:59:09;13.45;;;3.83;;
71475;SDS011;59286;59.274;17.974;2024-03-08T09:01:38;9.82;;;3.70;;
71475;SDS011;59286;59.274;17.974;2024-03-08T09:04:07;9.02;;;3.70;;
71475;SDS011;59286;59.274;17.974;2024-03-08T09:06:33;10.50;;;3.45;;
71475;SDS011;59286;59.274;17.974;2024-03-08T09:08:58;15.93;;;3.85;;
71475;SDS011;59286;59.274;17.974;2024-03-08T09:11:24;7.47;;;3.40;;
71475;SDS011;59286;59.274;17.974;2024-03-08T09:13:52;9.25;;;3.78;;
71475;SDS011;59286;59.274;17.974;2024-03-08T09:16:18;7.18;;;3.38;;
71475;SDS011;59286;59.274;17.974;2024-03-08T09:18:43;9.73;;;3.75;;
71475;SDS011;59286;59.274;17.974;2024-03-08T09:21:08;5.32;;;3.35;;
71475;SDS011;59286;59.274;17.974;2024-03-08T09:23:35;7.68;;;3.10;;
71475;SDS011;59286;59.274;17.974;2024-03-08T09:26:01;8.45;;;2.97;;
71475;SDS011;59286;59.274;17.974;2024-03-08T09:28:28;6.53;;;2.90;;
71475;SDS011;59286;59.274;17.974;2024-03-08T09:30:53;10.07;;;3.45;;
71475;SDS011;59286;59.274;17.974;2024-03-08T09:33:19;6.93;;;3.55;;
71475;SDS011;59286;59.274;17.974;2024-03-08T09:35:46;9.82;;;2.92;;
71475;SDS011;59286;59.274;17.974;2024-03-08T09:38:12;7.25;;;2.83;;
71475;SDS011;59286;59.274;17.974;2024-03-08T09:40:38;5.70;;;2.90;;
71475;SDS011;59286;59.274;17.974;2024-03-08T09:43:06;6.20;;;2.63;;
71475;SDS011;59286;59.274;17.974;2024-03-08T09:45:31;6.05;;;2.80;;
71475;SDS011;59286;59.274;17.974;2024-03-08T09:48:01;6.47;;;2.88;;
71475;SDS011;59286;59.274;17.974;2024-03-08T09:50:26;6.38;;;3.10;;
71475;SDS011;59286;59.274;17.974;2024-03-08T09:52:54;6.75;;;3.00;;
71475;SDS011;59286;59.274;17.974;2024-03-08T09:55:22;7.72;;;3.08;;
71475;SDS011;59286;59.274;17.974;2024-03-08T09:57:49;11.52;;;2.92;;
71475;SDS011;59286;59.274;17.974;2024-03-08T10:00:35;6.15;;;2.53;;
71475;SDS011;59286;59.274;17.974;2024-03-08T10:03:01;7.75;;;2.95;;
71475;SDS011;59286;59.274;17.974;2024-03-08T10:05:27;10.68;;;2.90;;
71475;SDS011;59286;59.274;17.974;2024-03-08T10:07:57;9.35;;;3.40;;
71475;SDS011;59286;59.274;17.974;2024-03-08T10:10:23;7.38;;;3.05;;
71475;SDS011;59286;59.274;17.974;2024-03-08T10:12:49;5.82;;;3.22;;
71475;SDS011;59286;59.274;17.974;2024-03-08T10:15:17;7.00;;;2.63;;
71475;SDS011;59286;59.274;17.974;2024-03-08T10:17:43;8.20;;;2.50;;
71475;SDS011;59286;59.274;17.974;2024-03-08T10:20:17;6.80;;;2.67;;
71475;SDS011;59286;59.274;17.974;2024-03-08T10:22:44;7.03;;;2.88;;
71475;SDS011;59286;59.274;17.974;2024-03-08T10:25:10;9.57;;;2.67;;
71475;SDS011;59286;59.274;17.974;2024-03-08T10:27:37;14.30;;;2.70;;
71475;SDS011;59286;59.274;17.974;2024-03-08T10:30:10;12.70;;;2.75;;
71475;SDS011;59286;59.274;17.974;2024-03-08T10:32:41;9.63;;;2.40;;
71475;SDS011;59286;59.274;17.974;2024-03-08T10:35:07;7.30;;;2.33;;
71475;SDS011;59286;59.274;17.974;2024-03-08T10:37:33;8.35;;;2.38;;
71475;SDS011;59286;59.274;17.974;2024-03-08T10:40:09;5.53;;;2.35;;
71475;SDS011;59286;59.274;17.974;2024-03-08T10:42:41;13.25;;;2.40;;
71475;SDS011;59286;59.274;17.974;2024-03-08T10:47:47;9.73;;;2.45;;
71475;SDS011;59286;59.274;17.974;2024-03-08T10:50:18;13.32;;;2.95;;
71475;SDS011;59286;59.274;17.974;2024-03-08T10:52:50;8.95;;;2.65;;
71475;SDS011;59286;59.274;17.974;2024-03-08T10:55:18;10.45;;;2.72;;
71475;SDS011;59286;59.274;17.974;2024-03-08T10:57:45;14.40;;;2.47;;
71475;SDS011;59286;59.274;17.974;2024-03-08T11:00:12;9.55;;;2.80;;
71475;SDS011;59286;59.274;17.974;2024-03-08T11:02:39;9.82;;;2.70;;
71475;SDS011;59286;59.274;17.974;2024-03-08T11:05:13;8.98;;;2.70;;
71475;SDS011;59286;59.274;17.974;2024-03-08T11:08:00;8.00;;;2.50;;
71475;SDS011;59286;59.274;17.974;2024-03-08T11:10:26;10.02;;;3.03;;
71475;SDS011;59286;59.274;17.974;2024-03-08T11:12:51;7.07;;;2.40;;
71475;SDS011;59286;59.274;17.974;2024-03-08T11:15:17;45.38;;;5.05;;
71475;SDS011;59286;59.274;17.974;2024-03-08T11:17:47;7.68;;;2.20;;
71475;SDS011;59286;59.274;17.974;2024-03-08T11:20:18;6.30;;;2.47;;
71475;SDS011;59286;59.274;17.974;2024-03-08T11:22:57;7.55;;;2.35;;
71475;SDS011;59286;59.274;17.974;2024-03-08T11:25:32;11.68;;;2.67;;
71475;SDS011;59286;59.274;17.974;2024-03-08T11:28:17;11.38;;;2.15;;
71475;SDS011;59286;59.274;17.974;2024-03-08T11:33:28;4.70;;;2.20;;
71475;SDS011;59286;59.274;17.974;2024-03-08T11:38:40;7.45;;;2.28;;
71475;SDS011;59286;59.274;17.974;2024-03-08T11:41:07;8.90;;;2.58;;
71475;SDS011;59286;59.274;17.974;2024-03-08T11:43:33;8.10;;;2.45;;
71475;SDS011;59286;59.274;17.974;2024-03-08T11:46:10;7.72;;;2.53;;
71475;SDS011;59286;59.274;17.974;2024-03-08T11:48:38;5.38;;;2.40;;
71475;SDS011;59286;59.274;17.974;2024-03-08T11:51:06;8.57;;;2.17;;
71475;SDS011;59286;59.274;17.974;2024-03-08T11:53:32;5.10;;;2.00;;
71475;SDS011;59286;59.274;17.974;2024-03-08T11:56:07;5.75;;;2.63;;
71475;SDS011;59286;59.274;17.974;2024-03-08T11:58:34;5.75;;;2.20;;
71475;SDS011;59286;59.274;17.974;2024-03-08T12:01:05;11.05;;;2.30;;
71475;SDS011;59286;59.274;17.974;2024-03-08T12:03:41;6.65;;;2.20;;
71475;SDS011;59286;59.274;17.974;2024-03-08T12:06:09;7.50;;;1.88;;
71475;SDS011;59286;59.274;17.974;2024-03-08T12:08:35;7.72;;;2.25;;
71475;SDS011;59286;59.274;17.974;2024-03-08T12:11:03;6.10;;;2.13;;
71475;SDS011;59286;59.274;17.974;2024-03-08T12:13:30;8.95;;;2.58;;
71475;SDS011;59286;59.274;17.974;2024-03-08T12:16:05;7.65;;;2.42;;
71475;SDS011;59286;59.274;17.974;2024-03-08T12:18:34;12.68;;;2.53;;
71475;SDS011;59286;59.274;17.974;2024-03-08T12:21:06;7.18;;;2.65;;
71475;SDS011;59286;59.274;17.974;2024-03-08T12:23:36;6.38;;;2.10;;
71475;SDS011;59286;59.274;17.974;2024-03-08T12:26:14;10.95;;;2.28;;
71475;SDS011;59286;59.274;17.974;2024-03-08T12:28:42;5.50;;;2.17;;
71475;SDS011;59286;59.274;17.974;2024-03-08T12:31:11;7.85;;;2.10;;
71475;SDS011;59286;59.274;17.974;2024-03-08T12:33:49;4.38;;;1.67;;
71475;SDS011;59286;59.274;17.974;2024-03-08T12:36:19;6.32;;;2.10;;
71475;SDS011;59286;59.274;17.974;2024-03-08T12:38:46;12.45;;;2.78;;
71475;SDS011;59286;59.274;17.974;2024-03-08T12:41:15;7.43;;;1.88;;
71475;SDS011;59286;59.274;17.974;2024-03-08T12:43:42;7.32;;;2.03;;
71475;SDS011;59286;59.274;17.974;2024-03-08T12:46:13;6.30;;;1.88;;
71475;SDS011;59286;59.274;17.974;2024-03-08T12:48:39;10.05;;;2.22;;
71475;SDS011;59286;59.274;17.974;2024-03-08T12:51:11;8.85;;;2.40;;
71475;SDS011;59286;59.274;17.974;2024-03-08T12:53:43;8.32;;;2.10;;
71475;SDS011;59286;59.274;17.974;2024-03-08T12:56:10;10.73;;;2.10;;
71475;SDS011;59286;59.274;17.974;2024-03-08T12:58:36;4.55;;;2.10;;
71475;SDS011;59286;59.274;17.974;2024-03-08T13:01:03;12.45;;;2.60;;
71475;SDS011;59286;59.274;17.974;2024-03-08T13:03:34;5.18;;;2.15;;
71475;SDS011;59286;59.274;17.974;2024-03-08T13:06:04;10.30;;;2.20;;
71475;SDS011;59286;59.274;17.974;2024-03-08T13:08:34;10.07;;;2.53;;
71475;SDS011;59286;59.274;17.974;2024-03-08T13:11:06;3.17;;;1.85;;
71475;SDS011;59286;59.274;17.974;2024-03-08T13:13:38;10.93;;;2.58;;
71475;SDS011;59286;59.274;17.974;2024-03-08T13:16:05;6.88;;;2.15;;
71475;SDS011;59286;59.274;17.974;2024-03-08T13:18:37;8.45;;;2.28;;
71475;SDS011;59286;59.274;17.974;2024-03-08T13:21:02;4.13;;;2.03;;
71475;SDS011;59286;59.274;17.974;2024-03-08T13:23:33;11.68;;;2.75;;
71475;SDS011;59286;59.274;17.974;2024-03-08T13:26:06;8.23;;;2.10;;
71475;SDS011;59286;59.274;17.974;2024-03-08T13:28:32;9.80;;;2.40;;
71475;SDS011;59286;59.274;17.974;2024-03-08T13:31:04;4.80;;;2.13;;
71475;SDS011;59286;59.274;17.974;2024-03-08T13:33:32;6.38;;;2.15;;
71475;SDS011;59286;59.274;17.974;2024-03-08T13:36:01;7.45;;;2.13;;
71475;SDS011;59286;59.274;17.974;2024-03-08T13:38:28;8.77;;;2.05;;
71475;SDS011;59286;59.274;17.974;2024-03-08T13:40:53;5.93;;;2.30;;
71475;SDS011;59286;59.274;17.974;2024-03-08T13:43:18;6.60;;;2.20;;
71475;SDS011;59286;59.274;17.974;2024-03-08T13:45:44;4.38;;;1.90;;
71475;SDS011;59286;59.274;17.974;2024-03-08T13:48:10;10.20;;;2.67;;
71475;SDS011;59286;59.274;17.974;2024-03-08T13:50:38;13.35;;;2.45;;
71475;SDS011;59286;59.274;17.974;2024-03-08T13:53:03;17.15;;;2.10;;
71475;SDS011;59286;59.274;17.974;2024-03-08T13:55:29;4.65;;;1.85;;
71475;SDS011;59286;59.274;17.974;2024-03-08T13:57:55;9.93;;;1.75;;
71475;SDS011;59286;59.274;17.974;2024-03-08T14:00:22;6.65;;;1.80;;
71475;SDS011;59286;59.274;17.974;2024-03-08T14:02:50;6.45;;;2.00;;
71475;SDS011;59286;59.274;17.974;2024-03-08T14:05:16;9.35;;;1.98;;
71475;SDS011;59286;59.274;17.974;2024-03-08T14:07:42;5.72;;;2.15;;
71475;SDS011;59286;59.274;17.974;2024-03-08T14:10:11;6.95;;;2.00;;
71475;SDS011;59286;59.274;17.974;2024-03-08T14:12:37;8.70;;;2.00;;
71475;SDS011;59286;59.274;17.974;2024-03-08T14:15:03;11.40;;;2.20;;
71475;SDS011;59286;59.274;17.974;2024-03-08T14:17:31;7.18;;;1.63;;
71475;SDS011;59286;59.274;17.974;2024-03-08T14:19:56;5.38;;;1.77;;
71475;SDS011;59286;59.274;17.974;2024-03-08T14:22:22;10.07;;;2.00;;
71475;SDS011;59286;59.274;17.974;2024-03-08T14:24:48;7.95;;;1.90;;
71475;SDS011;59286;59.274;17.974;2024-03-08T14:27:14;5.85;;;1.60;;
71475;SDS011;59286;59.274;17.974;2024-03-08T14:29:42;7.50;;;1.65;;
71475;SDS011;59286;59.274;17.974;2024-03-08T14:32:08;7.93;;;1.90;;
71475;SDS011;59286;59.274;17.974;2024-03-08T14:34:35;6.25;;;1.58;;
71475;SDS011;59286;59.274;17.974;2024-03-08T14:37:00;9.80;;;2.17;;
71475;SDS011;59286;59.274;17.974;2024-03-08T14:39:30;9.20;;;1.70;;